Time;durP1;ratioP1;P1;durP2;ratioP2;P2;SDS_P1;SDS_P2;PMS_P1;PMS_P2;Temp;Humidity;BMP_temperature;BMP_pressure;BME280_temperature;BME280_humidity;BME280_pressure;Samples;Min_cycle;Max_cycle;Signal;HPM_P1;HPM_P2
2022/03/26 00:01:45;;;;;;;23.17;13.02;;;13.40;27.80;;;;;;2387001;55;20999;-64
2022/03/26 00:04:11;;;;;;;20.08;11.40;;;13.30;27.90;;;;;;2248640;57;20963;-63
2022/03/26 00:06:38;;;;;;;17.37;10.18;;;13.10;27.80;;;;;;2223016;57;21938;-63
2022/03/26 00:09:04;;;;;;;15.88;9.07;;;13.00;28.00;;;;;;2258302;56;21021;-63
2022/03/26 00:11:31;;;;;;;14.98;8.63;;;12.80;28.00;;;;;;2263385;56;21020;-63
2022/03/26 00:13:57;;;;;;;15.80;8.48;;;12.70;28.10;;;;;;2258068;56;21792;-63
2022/03/26 00:16:24;;;;;;;13.43;8.13;;;12.60;28.30;;;;;;2487028;55;20953;-63
2022/03/26 00:18:51;;;;;;;14.32;8.52;;;12.50;28.40;;;;;;2263427;56;20993;-63
2022/03/26 00:21:17;;;;;;;11.75;7.15;;;12.40;28.50;;;;;;2259232;56;21028;-64
2022/03/26 00:23:47;;;;;;;16.92;7.80;;;12.10;28.40;;;;;;2259361;55;20960;-63
2022/03/26 00:26:15;;;;;;;14.70;8.32;;;12.10;28.50;;;;;;2258447;55;21497;-63
2022/03/26 00:28:42;;;;;;;14.73;8.02;;;12.00;28.60;;;;;;2259306;55;21016;-63
2022/03/26 00:31:33;;;;;;;15.05;7.50;;;11.90;28.70;;;;;;2259144;56;21020;-63
2022/03/26 00:34:00;;;;;;;12.95;7.22;;;11.80;29.00;;;;;;2259402;56;20941;-63
2022/03/26 00:36:26;;;;;;;14.55;8.30;;;11.70;28.70;;;;;;2259542;56;20963;-63
2022/03/26 00:38:52;;;;;;;13.80;8.07;;;11.50;28.80;;;;;;2259263;56;20944;-63
2022/03/26 00:41:18;;;;;;;13.02;7.40;;;11.40;28.90;;;;;;2259620;56;20972;-63
2022/03/26 00:43:45;;;;;;;14.68;8.20;;;11.30;28.90;;;;;;2262169;56;21013;-64
2022/03/26 00:46:11;;;;;;;13.88;8.20;;;11.20;29.00;;;;;;2317390;56;20997;-63
2022/03/26 00:48:40;;;;;;;11.98;6.93;;;11.10;29.20;;;;;;2251200;56;21028;-63
2022/03/26 00:51:07;;;;;;;14.10;7.65;;;11.10;29.40;;;;;;2239847;57;20955;-63
2022/03/26 00:53:34;;;;;;;14.55;8.18;;;11.00;29.50;;;;;;2259942;57;21542;-63
2022/03/26 00:56:01;;;;;;;14.05;7.95;;;10.90;29.60;;;;;;2277015;55;20945;-63
2022/03/26 00:58:28;;;;;;;16.00;8.60;;;10.80;29.50;;;;;;2487272;55;21001;-63
2022/03/26 01:00:55;;;;;;;16.70;9.00;;;10.70;29.50;;;;;;2254311;56;20974;-62
2022/03/26 01:03:22;;;;;;;13.93;7.72;;;10.70;29.50;;;;;;2259454;56;20960;-63
2022/03/26 01:05:48;;;;;;;14.30;8.02;;;10.60;29.60;;;;;;2487956;55;20977;-63
2022/03/26 01:08:14;;;;;;;13.02;8.35;;;10.50;29.70;;;;;;2473118;55;20992;-63
2022/03/26 01:10:49;;;;;;;12.65;7.22;;;10.40;29.70;;;;;;2234421;57;21015;-63
2022/03/26 01:13:16;;;;;;;13.30;7.07;;;10.30;29.90;;;;;;2251548;57;20974;-63
2022/03/26 01:15:43;;;;;;;13.50;7.60;;;10.20;29.70;;;;;;2234102;57;20980;-63
2022/03/26 01:18:09;;;;;;;12.55;6.68;;;10.20;29.80;;;;;;2258726;57;21008;-63
2022/03/26 01:20:36;;;;;;;13.52;7.32;;;10.10;30.30;;;;;;2259550;57;21030;-63
2022/03/26 01:23:03;;;;;;;13.90;7.05;;;10.00;29.90;;;;;;2253153;56;21085;-62
2022/03/26 01:25:29;;;;;;;12.52;6.57;;;10.00;30.00;;;;;;2247678;56;20961;-63
2022/03/26 01:27:55;;;;;;;14.10;7.32;;;9.90;30.90;;;;;;2260151;57;21489;-63
2022/03/26 01:30:24;;;;;;;12.13;6.65;;;9.80;30.90;;;;;;2236340;56;20987;-63
2022/03/26 01:33:02;;;;;;;12.65;7.32;;;9.80;31.00;;;;;;2261035;56;20945;-63
2022/03/26 01:35:28;;;;;;;11.07;6.32;;;9.70;31.50;;;;;;2228319;57;21006;-63
2022/03/26 01:38:05;;;;;;;11.50;6.70;;;9.70;31.20;;;;;;2260651;56;20984;-62
2022/03/26 01:40:38;;;;;;;15.48;7.93;;;9.70;31.60;;;;;;2245032;56;21048;-63
2022/03/26 01:43:19;;;;;;;12.23;6.78;;;9.60;31.60;;;;;;2254730;56;21477;-62
2022/03/26 01:45:47;;;;;;;12.82;6.85;;;9.50;32.10;;;;;;2249978;56;21036;-63
2022/03/26 01:48:13;;;;;;;12.75;7.22;;;9.40;31.60;;;;;;2257095;56;21008;-62
2022/03/26 01:50:40;;;;;;;13.18;7.20;;;9.40;31.60;;;;;;2253977;56;20953;-62
2022/03/26 01:53:16;;;;;;;13.85;7.53;;;9.40;31.70;;;;;;2276851;55;20998;-63
2022/03/26 01:55:42;;;;;;;14.02;7.87;;;9.30;32.00;;;;;;2487419;55;20980;-63
2022/03/26 01:58:17;;;;;;;13.95;7.68;;;9.20;31.70;;;;;;2259513;56;21040;-63
2022/03/26 02:00:44;;;;;;;13.48;7.93;;;9.10;31.90;;;;;;2259504;56;20949;-63
2022/03/26 02:03:10;;;;;;;12.82;7.00;;;9.10;31.80;;;;;;2259696;55;21616;-63
2022/03/26 02:05:37;;;;;;;17.10;8.63;;;9.00;31.90;;;;;;2263113;55;20952;-62
2022/03/26 02:08:28;;;;;;;14.05;7.75;;;8.90;31.90;;;;;;2257597;55;20997;-63
2022/03/26 02:10:54;;;;;;;15.80;8.57;;;8.90;32.50;;;;;;2469464;55;21005;-63
2022/03/26 02:13:21;;;;;;;14.32;8.05;;;8.80;32.10;;;;;;2261589;56;21060;-63
2022/03/26 02:16:12;;;;;;;15.88;8.68;;;8.70;32.20;;;;;;2250497;56;21002;-62
2022/03/26 02:18:48;;;;;;;16.17;8.57;;;8.70;32.90;;;;;;2244604;56;21770;-63
2022/03/26 02:21:15;;;;;;;16.08;8.52;;;8.60;32.80;;;;;;2259377;56;21020;-63
2022/03/26 02:23:41;;;;;;;15.68;9.05;;;8.60;32.50;;;;;;2254698;56;20977;-63
2022/03/26 02:26:08;;;;;;;17.20;9.15;;;8.50;32.60;;;;;;2251412;55;21033;-63
2022/03/26 02:28:35;;;;;;;16.40;8.32;;;8.50;32.90;;;;;;2250391;56;20945;-62
2022/03/26 02:31:01;;;;;;;15.23;7.97;;;8.40;32.80;;;;;;2483780;55;21458;-63
2022/03/26 02:33:30;;;;;;;14.68;8.38;;;8.40;33.00;;;;;;2258524;56;20956;-62
2022/03/26 02:36:15;;;;;;;13.85;8.10;;;8.40;33.10;;;;;;2234384;56;20957;-63
2022/03/26 02:38:41;;;;;;;13.32;7.37;;;8.30;33.40;;;;;;2319219;55;21023;-63
2022/03/26 02:41:07;;;;;;;17.87;9.43;;;8.30;33.00;;;;;;2463639;55;20953;-62
2022/03/26 02:43:34;;;;;;;14.25;8.23;;;8.20;33.10;;;;;;2242963;56;21035;-63
2022/03/26 02:46:01;;;;;;;14.40;7.95;;;8.20;33.20;;;;;;2253507;56;20949;-63
2022/03/26 02:48:27;;;;;;;17.70;8.68;;;8.10;33.10;;;;;;2471862;55;20990;-63
2022/03/26 02:51:00;;;;;;;15.82;8.60;;;8.10;33.20;;;;;;2253980;56;21053;-62
2022/03/26 02:53:29;;;;;;;16.30;9.10;;;8.00;33.50;;;;;;2485135;55;21044;-63
2022/03/26 02:55:56;;;;;;;14.77;8.55;;;8.00;33.40;;;;;;2244222;56;21009;-63
2022/03/26 02:58:22;;;;;;;16.75;9.07;;;7.90;33.50;;;;;;2407845;55;20929;-63
2022/03/26 03:00:48;;;;;;;17.48;9.32;;;7.80;33.60;;;;;;2252816;56;20985;-63
2022/03/26 03:03:20;;;;;;;16.60;9.43;;;7.80;33.70;;;;;;2247638;56;21105;-63
2022/03/26 03:05:52;;;;;;;15.35;8.52;;;7.80;34.00;;;;;;2258976;56;20937;-63
2022/03/26 03:08:22;;;;;;;15.80;8.32;;;7.70;34.00;;;;;;2258378;56;21421;-62
2022/03/26 03:10:48;;;;;;;16.27;8.23;;;7.70;33.90;;;;;;2486910;55;21437;-62
2022/03/26 03:13:20;;;;;;;16.00;7.78;;;7.70;33.90;;;;;;2254559;56;20987;-62
2022/03/26 03:15:47;;;;;;;13.62;7.78;;;7.60;33.90;;;;;;2487550;55;21732;-63
2022/03/26 03:21:53;;;;;;;15.05;8.00;;;7.50;34.30;;;;;;2487132;55;20953;-62
2022/03/26 03:24:38;;;;;;;14.27;7.62;;;7.50;33.80;;;;;;2257843;56;20992;-62
2022/03/26 03:27:32;;;;;;;12.98;6.85;;;7.40;34.30;;;;;;2487782;55;20972;-63
2022/03/26 03:29:58;;;;;;;15.30;8.45;;;7.40;34.30;;;;;;2258862;56;20933;-63
2022/03/26 03:32:26;;;;;;;16.58;7.78;;;7.30;33.90;;;;;;2486678;55;20956;-63
2022/03/26 03:34:52;;;;;;;16.05;8.20;;;7.30;34.00;;;;;;2258729;56;20953;-62
2022/03/26 03:40:46;;;;;;;14.75;7.75;;;7.20;34.80;;;;;;2288741;55;20949;-62
2022/03/26 03:43:12;;;;;;;15.27;8.32;;;7.10;34.20;;;;;;2264508;56;20996;-62
2022/03/26 03:45:47;;;;;;;17.23;7.75;;;7.10;34.30;;;;;;2452908;55;20955;-63
2022/03/26 03:48:50;;;;;;;13.77;7.55;;;7.00;34.70;;;;;;2252755;56;21046;-62
2022/03/26 03:51:16;;;;;;;14.27;7.25;;;7.00;35.00;;;;;;2259902;56;20949;-62
2022/03/26 03:53:45;;;;;;;15.30;7.50;;;6.90;34.50;;;;;;2259494;55;21040;-62
2022/03/26 03:56:12;;;;;;;15.30;7.62;;;6.90;34.70;;;;;;2234710;56;21005;-63
2022/03/26 03:58:38;;;;;;;15.43;7.93;;;6.90;34.80;;;;;;2258485;56;20980;-62
2022/03/26 04:01:21;;;;;;;14.80;7.68;;;6.80;35.00;;;;;;2237829;56;21475;-63
2022/03/26 04:03:54;;;;;;;15.63;7.20;;;6.80;35.40;;;;;;2476641;55;20955;-63
2022/03/26 04:06:20;;;;;;;16.25;8.30;;;6.80;35.90;;;;;;2244022;56;21324;-63
2022/03/26 04:09:01;;;;;;;12.88;7.43;;;6.70;35.10;;;;;;2249785;56;20966;-62
2022/03/26 04:11:27;;;;;;;14.95;7.82;;;6.70;35.60;;;;;;2235572;56;21596;-63
2022/03/26 04:13:54;;;;;;;14.77;7.75;;;6.70;35.40;;;;;;2243810;56;20996;-62
2022/03/26 04:16:38;;;;;;;16.20;8.70;;;6.70;35.60;;;;;;2256603;56;20984;-63
2022/03/26 04:19:04;;;;;;;15.38;7.97;;;6.70;36.20;;;;;;2407200;55;22401;-62
2022/03/26 04:21:59;;;;;;;15.60;8.07;;;6.60;35.70;;;;;;2474584;55;21003;-62
2022/03/26 04:24:25;;;;;;;15.05;7.95;;;6.60;36.10;;;;;;2248270;56;21027;-63
2022/03/26 04:26:52;;;;;;;16.08;8.57;;;6.60;35.60;;;;;;2480569;55;20956;-62
2022/03/26 04:29:18;;;;;;;18.10;8.50;;;6.50;35.40;;;;;;2258121;56;21028;-62
2022/03/26 04:35:15;;;;;;;13.77;7.30;;;6.50;36.10;;;;;;2486190;55;21021;-62
2022/03/26 04:38:06;;;;;;;14.57;7.40;;;6.50;35.70;;;;;;2259423;56;21058;-62
2022/03/26 04:40:33;;;;;;;13.57;6.97;;;6.40;36.00;;;;;;2258931;57;20941;-62
2022/03/26 04:43:35;;;;;;;14.55;7.57;;;6.40;35.60;;;;;;2234411;57;20941;-62
2022/03/26 04:46:28;;;;;;;12.77;6.78;;;6.40;36.20;;;;;;2257287;56;20957;-63
2022/03/26 04:48:56;;;;;;;17.42;7.87;;;6.30;36.00;;;;;;2248760;55;21042;-62
2022/03/26 04:51:22;;;;;;;14.52;7.45;;;6.30;35.60;;;;;;2264358;56;20953;-62
2022/03/26 04:53:48;;;;;;;14.87;7.47;;;6.20;35.70;;;;;;2249638;56;20998;-62
2022/03/26 04:56:15;;;;;;;15.00;7.15;;;6.20;35.80;;;;;;2261772;56;20985;-62
2022/03/26 04:58:41;;;;;;;14.73;7.47;;;6.20;35.80;;;;;;2258205;56;20965;-62
2022/03/26 05:01:07;;;;;;;15.75;8.18;;;6.20;36.00;;;;;;2480737;55;20968;-62
2022/03/26 05:03:34;;;;;;;13.27;7.18;;;6.10;36.00;;;;;;2259460;56;20948;-62
2022/03/26 05:06:15;;;;;;;16.55;8.82;;;6.10;36.10;;;;;;2232406;56;20961;-62
2022/03/26 05:08:41;;;;;;;17.15;9.65;;;6.10;36.60;;;;;;2476430;55;20980;-62
2022/03/26 05:11:08;;;;;;;17.30;9.05;;;6.00;36.20;;;;;;2263452;56;20957;-62
2022/03/26 05:13:46;;;;;;;18.15;9.23;;;6.00;36.40;;;;;;2439776;56;21000;-63
2022/03/26 05:16:13;;;;;;;14.35;8.07;;;6.00;36.90;;;;;;2249969;56;21051;-62
2022/03/26 05:19:20;;;;;;;18.65;9.60;;;5.90;36.50;;;;;;2257794;55;21032;-63
2022/03/26 05:22:17;;;;;;;16.55;8.52;;;5.90;37.00;;;;;;2252382;55;21063;-62
2022/03/26 05:25:02;;;;;;;20.73;10.00;;;5.90;36.90;;;;;;2487511;55;21138;-62
2022/03/26 05:27:28;;;;;;;18.77;9.13;;;5.90;37.00;;;;;;2258253;56;20992;-62
2022/03/26 05:29:55;;;;;;;16.45;8.70;;;5.80;36.50;;;;;;2258860;56;21012;-63
2022/03/26 05:32:21;;;;;;;18.05;8.75;;;5.80;36.60;;;;;;2259617;56;20948;-63
2022/03/26 05:35:13;;;;;;;15.48;8.00;;;5.80;36.70;;;;;;2259962;56;20978;-62
2022/03/26 05:37:46;;;;;;;17.50;8.55;;;5.80;37.10;;;;;;2259456;56;21052;-62
2022/03/26 05:40:16;;;;;;;16.85;8.95;;;5.70;36.80;;;;;;2485537;55;22268;-62
2022/03/26 05:42:43;;;;;;;19.27;9.40;;;5.70;36.90;;;;;;2258887;55;21028;-62
2022/03/26 05:45:09;;;;;;;15.60;8.13;;;5.70;37.00;;;;;;2259250;57;20952;-62
2022/03/26 05:47:36;;;;;;;18.45;9.73;;;5.70;37.10;;;;;;2252259;56;21451;-62
2022/03/26 05:50:03;;;;;;;15.55;8.25;;;5.70;37.20;;;;;;2246123;56;20964;-62
2022/03/26 05:52:29;;;;;;;16.48;8.60;;;5.70;37.40;;;;;;2232688;56;20966;-62
2022/03/26 05:54:55;;;;;;;16.87;8.48;;;5.70;37.50;;;;;;2258477;56;20949;-62
2022/03/26 05:57:27;;;;;;;18.45;9.10;;;5.70;37.60;;;;;;2259695;56;21025;-62
2022/03/26 05:59:53;;;;;;;17.12;8.82;;;5.70;37.80;;;;;;2233315;56;21022;-62
2022/03/26 06:02:21;;;;;;;16.25;8.77;;;5.70;37.80;;;;;;2512086;55;21017;-62
2022/03/26 06:04:47;;;;;;;19.15;9.93;;;5.70;37.80;;;;;;2518557;55;21619;-63
2022/03/26 06:07:14;;;;;;;20.70;9.57;;;5.80;37.90;;;;;;2496245;55;20932;-62
2022/03/26 06:09:41;;;;;;;15.32;8.30;;;5.80;38.10;;;;;;2259903;57;21052;-62
2022/03/26 06:12:08;;;;;;;15.45;8.27;;;5.80;38.30;;;;;;2274816;56;20970;-62
2022/03/26 06:14:34;;;;;;;16.17;8.55;;;5.80;38.20;;;;;;2257640;56;20984;-62
2022/03/26 06:17:00;;;;;;;16.10;8.82;;;5.80;38.30;;;;;;2516943;55;21368;-63
2022/03/26 06:19:30;;;;;;;15.10;8.57;;;5.90;38.40;;;;;;2375032;55;20946;-62
2022/03/26 06:21:56;;;;;;;15.73;8.05;;;5.90;38.60;;;;;;2246387;56;20994;-62
2022/03/26 06:24:23;;;;;;;15.73;8.25;;;6.00;38.60;;;;;;2260268;56;21048;-62
2022/03/26 06:26:49;;;;;;;15.43;8.25;;;6.00;38.70;;;;;;2276478;56;20962;-62
2022/03/26 06:29:16;;;;;;;14.25;7.97;;;6.10;38.80;;;;;;2386878;55;21498;-63
2022/03/26 06:31:43;;;;;;;16.08;8.48;;;6.10;38.90;;;;;;2284503;56;20950;-62
2022/03/26 06:34:12;;;;;;;16.10;8.43;;;6.20;39.00;;;;;;2284524;56;20946;-62
2022/03/26 06:40:03;;;;;;;14.48;8.13;;;6.30;39.70;;;;;;2285537;56;21042;-62
2022/03/26 06:42:29;;;;;;;16.92;8.60;;;6.40;39.10;;;;;;2284386;56;20962;-63
2022/03/26 06:44:59;;;;;;;18.23;10.13;;;6.50;39.30;;;;;;2285151;56;20942;-63
2022/03/26 06:47:28;;;;;;;15.48;8.98;;;6.60;39.50;;;;;;2263929;56;20952;-62
2022/03/26 06:49:58;;;;;;;14.30;7.97;;;6.60;39.70;;;;;;2259469;55;21442;-62
2022/03/26 06:52:25;;;;;;;16.27;9.15;;;6.70;39.70;;;;;;2257816;56;20941;-62
2022/03/26 06:54:55;;;;;;;18.10;9.38;;;6.80;39.80;;;;;;2258020;56;21453;-63
2022/03/26 06:57:21;;;;;;;17.27;9.63;;;6.90;40.10;;;;;;2487430;55;20953;-63
2022/03/26 06:59:48;;;;;;;18.35;10.70;;;7.00;40.30;;;;;;2258938;56;21541;-63
2022/03/26 07:02:14;;;;;;;17.75;9.77;;;7.20;40.50;;;;;;2259114;56;21482;-63
2022/03/26 07:04:41;;;;;;;18.80;9.70;;;7.30;40.70;;;;;;2258626;56;21052;-63
2022/03/26 07:07:07;;;;;;;18.92;9.95;;;7.40;40.70;;;;;;2262532;56;21380;-63
2022/03/26 07:09:33;;;;;;;18.37;9.43;;;7.60;40.70;;;;;;2230249;57;21944;-63
2022/03/26 07:12:00;;;;;;;19.58;10.43;;;7.70;40.60;;;;;;2259167;56;21422;-63
2022/03/26 07:14:26;;;;;;;16.90;9.88;;;7.80;40.70;;;;;;2245626;56;21028;-63
2022/03/26 07:16:53;;;;;;;18.10;10.50;;;8.00;40.70;;;;;;2249363;56;20997;-63
2022/03/26 07:19:19;;;;;;;19.95;10.05;;;8.10;40.70;;;;;;2258991;56;21013;-63
2022/03/26 07:21:45;;;;;;;14.98;9.00;;;8.20;40.70;;;;;;2487095;55;20957;-63
2022/03/26 07:24:11;;;;;;;17.92;10.10;;;8.40;40.80;;;;;;2258645;55;20921;-63
2022/03/26 07:26:38;;;;;;;18.55;9.45;;;8.50;40.80;;;;;;2258950;56;20991;-63
2022/03/26 07:29:04;;;;;;;18.35;10.40;;;8.70;40.80;;;;;;2262752;56;20972;-63
2022/03/26 07:31:30;;;;;;;18.52;10.38;;;8.80;40.80;;;;;;2231207;57;20933;-63
2022/03/26 07:33:56;;;;;;;18.42;10.27;;;8.90;40.70;;;;;;2483285;55;21557;-63
2022/03/26 07:36:23;;;;;;;18.45;10.48;;;9.10;40.70;;;;;;2249284;56;21572;-63
2022/03/26 07:38:49;;;;;;;17.77;10.38;;;9.20;40.70;;;;;;2259713;55;21506;-63
2022/03/26 07:41:15;;;;;;;18.35;11.02;;;9.40;40.70;;;;;;2259332;55;21521;-63
2022/03/26 07:43:41;;;;;;;19.35;11.57;;;9.50;40.70;;;;;;2257640;55;20959;-63
2022/03/26 07:46:08;;;;;;;17.48;9.90;;;9.60;40.60;;;;;;2257518;56;20948;-63
2022/03/26 07:48:34;;;;;;;22.87;11.60;;;9.80;40.70;;;;;;2259487;55;21001;-64
2022/03/26 07:51:00;;;;;;;20.20;10.52;;;9.90;40.60;;;;;;2259293;56;20929;-64
2022/03/26 07:53:29;;;;;;;19.75;11.50;;;10.00;39.60;;;;;;2258945;55;20964;-64
2022/03/26 07:55:57;;;;;;;19.35;11.45;;;10.20;39.60;;;;;;2259014;56;21008;-64
2022/03/26 07:58:26;;;;;;;21.33;11.75;;;10.40;39.60;;;;;;2485807;55;21477;-64
2022/03/26 08:00:52;;;;;;;19.73;11.70;;;10.50;39.70;;;;;;2258982;55;20968;-64
2022/03/26 08:03:19;;;;;;;24.05;13.57;;;10.70;39.80;;;;;;2259306;56;21036;-64
2022/03/26 08:05:45;;;;;;;22.60;13.23;;;10.90;39.80;;;;;;2258860;55;20964;-65
2022/03/26 08:08:12;;;;;;;21.48;12.15;;;11.10;40.00;;;;;;2276485;55;21070;-64
2022/03/26 08:10:38;;;;;;;23.52;13.15;;;11.40;40.30;;;;;;2241119;55;20975;-64
2022/03/26 08:13:05;;;;;;;20.70;12.93;;;11.60;40.50;;;;;;2253570;55;21025;-64
2022/03/26 08:15:31;;;;;;;21.02;12.27;;;12.00;40.70;;;;;;2480018;55;20948;-64
2022/03/26 08:18:09;;;;;;;22.52;12.82;;;12.30;40.90;;;;;;2258218;55;20941;-63
2022/03/26 08:20:35;;;;;;;21.55;12.43;;;12.70;41.20;;;;;;2256771;56;20981;-65
2022/03/26 08:23:01;;;;;;;21.48;12.55;;;13.10;41.30;;;;;;2256639;55;21072;-66
2022/03/26 08:28:12;;;;;;;18.10;11.20;;;13.90;41.50;;;;;;2259370;55;21406;-64
2022/03/26 08:30:57;;;;;;;19.27;11.90;;;14.40;41.70;;;;;;2259156;55;21114;-64
2022/03/26 08:33:48;;;;;;;15.93;10.13;;;14.80;41.40;;;;;;2263043;55;21464;-63
2022/03/26 08:36:17;;;;;;;19.40;11.50;;;15.30;41.00;;;;;;2261383;55;20930;-64
2022/03/26 08:38:45;;;;;;;19.37;10.88;;;15.60;40.60;;;;;;2485718;55;20964;-64
2022/03/26 08:41:12;;;;;;;17.73;11.10;;;15.90;40.20;;;;;;2259463;55;20940;-64
2022/03/26 08:43:41;;;;;;;17.17;11.23;;;16.30;40.30;;;;;;2262730;56;20986;-64
2022/03/26 08:46:09;;;;;;;16.10;9.95;;;16.60;40.20;;;;;;2258962;55;20937;-65
2022/03/26 08:48:36;;;;;;;15.15;9.93;;;16.90;40.20;;;;;;2263106;55;20958;-65
2022/03/26 08:51:02;;;;;;;15.73;10.32;;;17.30;40.10;;;;;;2259682;56;20964;-65
2022/03/26 08:54:10;;;;;;;19.92;11.48;;;17.70;39.90;;;;;;2270615;55;21058;-64
2022/03/26 08:56:36;;;;;;;16.30;10.45;;;18.00;39.40;;;;;;2284520;56;21002;-65
2022/03/26 08:59:33;;;;;;;17.00;10.98;;;18.40;39.10;;;;;;2285009;56;20950;-66
2022/03/26 09:02:01;;;;;;;17.77;11.65;;;18.60;38.30;;;;;;2267076;56;21120;-64
2022/03/26 09:04:28;;;;;;;16.33;10.30;;;18.80;38.00;;;;;;2254103;56;21281;-65
2022/03/26 09:06:54;;;;;;;16.62;11.25;;;19.00;37.70;;;;;;2258948;56;20969;-64
2022/03/26 09:09:20;;;;;;;16.80;10.88;;;19.20;37.60;;;;;;2248890;56;21548;-66
2022/03/26 09:11:48;;;;;;;20.85;12.57;;;19.40;37.30;;;;;;2280007;55;21024;-66
2022/03/26 09:14:15;;;;;;;17.23;10.77;;;19.60;36.80;;;;;;2259359;56;21044;-65
2022/03/26 09:20:09;;;;;;;17.45;11.75;;;19.90;35.80;;;;;;2343321;55;21854;-65
2022/03/26 09:22:35;;;;;;;16.90;11.25;;;20.10;35.90;;;;;;2259687;57;20952;-65
2022/03/26 09:25:02;;;;;;;19.83;11.95;;;20.30;35.90;;;;;;2234407;56;21000;-65
2022/03/26 09:27:29;;;;;;;19.45;13.07;;;20.40;35.60;;;;;;2239062;57;21719;-65
2022/03/26 09:29:55;;;;;;;22.95;12.73;;;20.50;35.20;;;;;;2395219;55;20964;-65
2022/03/26 09:32:22;;;;;;;19.70;12.00;;;20.70;34.80;;;;;;2467162;55;20977;-65
2022/03/26 09:34:48;;;;;;;19.73;11.98;;;20.70;34.50;;;;;;2258017;56;21441;-67
2022/03/26 09:37:16;;;;;;;19.30;12.02;;;20.80;34.20;;;;;;2255746;56;21008;-65
2022/03/26 09:39:42;;;;;;;19.23;12.18;;;20.80;33.90;;;;;;2258006;56;21331;-67
2022/03/26 09:42:09;;;;;;;19.48;11.75;;;21.00;33.90;;;;;;2481491;55;21037;-65
2022/03/26 09:44:47;;;;;;;21.12;12.63;;;21.00;33.70;;;;;;2252045;56;21047;-66
2022/03/26 09:47:14;;;;;;;19.00;11.95;;;21.10;33.30;;;;;;2267119;56;21072;-67
2022/03/26 09:50:09;;;;;;;19.55;12.63;;;21.20;33.50;;;;;;2258929;55;20992;-66
2022/03/26 09:56:04;;;;;;;16.98;11.40;;;21.30;32.90;;;;;;2290176;55;21006;-65
2022/03/26 09:58:31;;;;;;;21.97;12.23;;;21.40;32.90;;;;;;2250753;56;21162;-65
2022/03/26 10:00:57;;;;;;;18.33;11.65;;;21.50;32.90;;;;;;2244776;55;21231;-65
2022/03/26 10:06:56;;;;;;;16.87;11.35;;;21.60;32.10;;;;;;2429543;55;21442;-65
2022/03/26 10:09:45;;;;;;;18.95;11.50;;;21.60;32.50;;;;;;2256052;56;21028;-65
2022/03/26 10:12:27;;;;;;;19.25;10.82;;;21.70;32.30;;;;;;2259396;56;21016;-65
2022/03/26 10:16:21;;;;;;;18.73;12.65;;;21.70;32.10;;;;;;2258893;56;21743;-67
2022/03/26 10:18:47;;;;;;;16.15;9.98;;;21.80;32.30;;;;;;2487493;55;21082;-64
2022/03/26 10:21:15;;;;;;;20.35;12.30;;;21.80;32.20;;;;;;2351436;55;21426;-66
2022/03/26 10:24:05;;;;;;;22.58;14.13;;;21.80;31.90;;;;;;2257673;56;21049;-65
2022/03/26 10:26:31;;;;;;;21.98;13.18;;;21.80;31.30;;;;;;2486674;55;21077;-66
2022/03/26 10:28:58;;;;;;;24.87;14.77;;;21.70;31.20;;;;;;2255025;56;21024;-65
2022/03/26 10:35:25;;;;;;;20.00;12.77;;;21.60;30.80;;;;;;2254507;56;21006;-65
2022/03/26 10:38:02;;;;;;;21.17;13.02;;;21.40;30.60;;;;;;2378604;55;21096;-68
2022/03/26 10:40:38;;;;;;;19.62;13.10;;;21.30;31.50;;;;;;2254086;56;21069;-68
2022/03/26 10:43:14;;;;;;;24.08;14.63;;;21.30;30.90;;;;;;2262325;56;22020;-66
2022/03/26 10:45:51;;;;;;;19.87;12.70;;;21.20;30.70;;;;;;2257485;57;20989;-65
2022/03/26 10:49:00;;;;;;;21.73;13.57;;;21.20;30.90;;;;;;2243509;56;21476;-66
2022/03/26 10:51:35;;;;;;;20.10;12.60;;;21.20;30.90;;;;;;2264304;56;21708;-66
2022/03/26 10:54:08;;;;;;;23.62;12.82;;;21.20;30.80;;;;;;2337395;55;21000;-66
2022/03/26 10:56:40;;;;;;;27.60;14.65;;;21.20;30.80;;;;;;2258190;56;20968;-65
2022/03/26 10:59:06;;;;;;;25.33;14.13;;;21.30;30.70;;;;;;2252461;56;20990;-66
2022/03/26 11:01:34;;;;;;;24.83;15.02;;;21.40;31.00;;;;;;2234726;57;21045;-65
2022/03/26 11:04:00;;;;;;;19.62;12.50;;;21.40;30.80;;;;;;2250770;56;20965;-65
2022/03/26 11:06:27;;;;;;;22.10;12.27;;;21.50;30.90;;;;;;2253038;56;20945;-68
2022/03/26 11:09:00;;;;;;;21.98;12.68;;;21.60;31.20;;;;;;2253542;56;20968;-66
2022/03/26 11:11:27;;;;;;;21.30;11.82;;;21.70;31.40;;;;;;2261401;56;22008;-65
2022/03/26 11:14:17;;;;;;;22.77;14.43;;;21.90;31.40;;;;;;2258655;56;20989;-65
2022/03/26 11:16:58;;;;;;;23.17;13.75;;;22.00;31.10;;;;;;2259398;55;21024;-65
2022/03/26 11:23:11;;;;;;;22.10;13.70;;;22.20;30.30;;;;;;2473980;55;21136;-67
2022/03/26 11:28:21;;;;;;;22.08;14.50;;;22.30;30.30;;;;;;2258893;56;20973;-65
2022/03/26 11:31:01;;;;;;;26.40;13.70;;;22.40;30.40;;;;;;2488012;55;21072;-66
2022/03/26 11:33:33;;;;;;;18.42;11.35;;;22.40;30.10;;;;;;2266031;55;21851;-66
2022/03/26 11:36:01;;;;;;;20.92;12.15;;;22.50;30.20;;;;;;2250924;56;21059;-67
2022/03/26 11:38:29;;;;;;;20.70;12.95;;;22.60;30.70;;;;;;2477489;55;20973;-65
2022/03/26 11:41:02;;;;;;;21.48;13.25;;;22.70;30.40;;;;;;2258412;56;20957;-66
2022/03/26 11:52:44;;;;;;;18.12;11.40;;;23.20;30.40;;;;;;2259159;56;20953;-67
2022/03/26 11:55:45;;;;;;;18.70;11.32;;;23.30;30.30;;;;;;2257357;56;20966;-66
2022/03/26 11:58:20;;;;;;;18.02;11.90;;;23.40;29.90;;;;;;2259788;56;20944;-67
2022/03/26 12:01:20;;;;;;;18.85;12.13;;;23.60;30.10;;;;;;2255956;56;20996;-66
2022/03/26 12:03:48;;;;;;;19.37;12.55;;;23.70;29.90;;;;;;2259939;56;21000;-66
2022/03/26 12:06:39;;;;;;;21.08;12.73;;;23.80;29.90;;;;;;2263361;56;21032;-66
2022/03/26 12:09:06;;;;;;;17.62;12.40;;;23.90;29.50;;;;;;2238253;56;20963;-66
2022/03/26 12:11:33;;;;;;;18.35;11.95;;;24.00;29.50;;;;;;2259308;56;21052;-66
2022/03/26 12:14:17;;;;;;;22.67;13.80;;;24.10;29.50;;;;;;2249876;56;21009;-67
2022/03/26 12:16:58;;;;;;;18.98;11.57;;;24.10;28.80;;;;;;2251215;56;20922;-68
2022/03/26 12:19:50;;;;;;;19.45;12.48;;;24.10;28.90;;;;;;2279933;56;21077;-67
2022/03/26 12:22:26;;;;;;;19.52;11.63;;;24.10;28.70;;;;;;2284902;56;21065;-67
2022/03/26 12:25:29;;;;;;;16.17;11.23;;;24.20;28.80;;;;;;2493389;55;21833;-68
2022/03/26 12:28:00;;;;;;;19.70;12.55;;;24.20;28.70;;;;;;2259759;56;21011;-66
2022/03/26 12:30:28;;;;;;;20.70;12.87;;;24.30;28.70;;;;;;2259357;56;20986;-69
2022/03/26 12:32:55;;;;;;;22.02;12.75;;;24.40;28.70;;;;;;2234203;56;21533;-69
2022/03/26 12:35:21;;;;;;;21.12;14.20;;;24.40;28.40;;;;;;2234019;56;20954;-67
2022/03/26 12:41:23;;;;;;;21.75;13.18;;;24.50;27.90;;;;;;2254117;57;21940;-67
2022/03/26 12:43:56;;;;;;;20.17;13.20;;;24.50;27.80;;;;;;2487731;55;20948;-66
2022/03/26 12:46:32;;;;;;;22.40;13.35;;;24.50;27.90;;;;;;2257295;55;21500;-69
2022/03/26 12:49:20;;;;;;;23.45;14.20;;;24.50;27.60;;;;;;2255729;56;20976;-66
2022/03/26 12:51:50;;;;;;;19.85;13.43;;;24.50;27.50;;;;;;2458567;55;21746;-66
2022/03/26 12:54:31;;;;;;;21.08;13.65;;;24.50;27.40;;;;;;2251753;56;21076;-66
2022/03/26 12:57:01;;;;;;;18.30;11.90;;;24.50;27.40;;;;;;2247303;56;21029;-66
2022/03/26 12:59:28;;;;;;;19.23;12.70;;;24.50;27.60;;;;;;2249146;56;21029;-67
2022/03/26 13:02:00;;;;;;;18.50;12.93;;;24.50;27.30;;;;;;2282429;56;21857;-67
2022/03/26 13:04:26;;;;;;;19.33;12.63;;;24.60;27.30;;;;;;2263961;56;21054;-67
2022/03/26 13:06:59;;;;;;;21.17;13.55;;;24.60;27.30;;;;;;2285159;56;21729;-67
2022/03/26 13:09:29;;;;;;;;;;;24.60;26.90;;;;;;2284713;56;20952;-66
2022/03/26 13:11:56;;;;;;;17.87;11.38;;;24.70;27.40;;;;;;2261532;56;20245;-68
2022/03/26 13:14:22;;;;;;;18.48;12.40;;;24.70;27.20;;;;;;2516525;55;21058;-66
2022/03/26 13:16:52;;;;;;;18.95;12.80;;;24.80;27.00;;;;;;2276686;56;20971;-68
2022/03/26 13:20:13;;;;;;;19.08;12.13;;;24.80;26.80;;;;;;2278251;56;21093;-68
2022/03/26 13:22:42;;;;;;;19.83;12.30;;;24.90;26.80;;;;;;2284496;56;21019;-66
2022/03/26 13:25:09;;;;;;;18.45;12.25;;;24.90;27.00;;;;;;2284152;56;20934;-66
2022/03/26 13:27:35;;;;;;;20.70;13.20;;;24.90;27.00;;;;;;2287484;56;20942;-67
2022/03/26 13:30:11;;;;;;;17.95;12.13;;;25.00;26.80;;;;;;2248149;56;21240;-67
2022/03/26 13:32:41;;;;;;;21.92;13.75;;;25.00;26.60;;;;;;2264794;56;21001;-67
2022/03/26 13:35:07;;;;;;;17.87;11.95;;;25.10;26.60;;;;;;2279397;56;21577;-67
2022/03/26 13:38:11;;;;;;;21.02;13.75;;;25.10;26.40;;;;;;2492725;55;20926;-66
2022/03/26 13:40:38;;;;;;;22.80;13.80;;;25.20;26.20;;;;;;2264340;56;21037;-67
2022/03/26 13:43:26;;;;;;;23.05;14.25;;;25.10;26.00;;;;;;2307297;56;21427;-66
2022/03/26 13:45:53;;;;;;;19.35;12.82;;;25.10;25.60;;;;;;2284399;56;20950;-67
2022/03/26 13:51:47;;;;;;;17.10;11.55;;;25.00;25.40;;;;;;2286737;55;21613;-66
2022/03/26 13:54:16;;;;;;;18.35;11.88;;;25.00;25.70;;;;;;2246143;57;21706;-66